This is the latest recevied weather packets stored in our database for station/object LZ0VRC-10. If no packets are shown the sender has not sent any weather packets the latest 10 day(s).
| Time | Temp. | Humidity | Pressure | Rain* | Wind** | Luminosity | Snow |
|---|---|---|---|---|---|---|---|
| 1777184926 | 22.78° C | 28% | 1014.6 hPa | - | - | - | - |
| 1777184921 | 22.78° C | 28% | 1014.6 hPa | - | - | - | - |
| 1777184026 | 21.67° C | 33% | 1014.6 hPa | - | - | - | - |
| 1777184021 | 21.67° C | 33% | 1014.6 hPa | - | - | - | - |
| 1777183126 | 20° C | 35% | 1014.5 hPa | - | - | - | - |
| 1777183121 | 20° C | 35% | 1014.5 hPa | - | - | - | - |
| 1777182226 | 18.89° C | 38% | 1014.4 hPa | - | - | - | - |
| 1777182221 | 18.89° C | 38% | 1014.4 hPa | - | - | - | - |
| 1777181326 | 17.78° C | 40% | 1014.4 hPa | - | - | - | - |
| 1777181321 | 17.78° C | 40% | 1014.4 hPa | - | - | - | - |
| 1777180426 | 16.11° C | 45% | 1014.4 hPa | - | - | - | - |
| 1777180421 | 16.11° C | 45% | 1014.4 hPa | - | - | - | - |
| 1777179521 | 15° C | 47% | 1014.3 hPa | - | - | - | - |
| 1777178626 | 13.89° C | 49% | 1014.2 hPa | - | - | - | - |
| 1777178621 | 13.89° C | 49% | 1014.2 hPa | - | - | - | - |
| 1777177721 | 12.78° C | 51% | 1014 hPa | - | - | - | - |
| 1777176826 | 11.67° C | 55% | 1014 hPa | - | - | - | - |
| 1777176821 | 11.67° C | 55% | 1014 hPa | - | - | - | - |
| 1777175922 | 11.67° C | 56% | 1013.9 hPa | - | - | - | - |
| 1777175022 | 11.11° C | 58% | 1013.8 hPa | - | - | - | - |
| 1777174121 | 11.11° C | 58% | 1013.8 hPa | - | - | - | - |
| 1777173227 | 11.11° C | 58% | 1013.6 hPa | - | - | - | - |
| 1777173222 | 11.11° C | 58% | 1013.6 hPa | - | - | - | - |
| 1777172322 | 11.67° C | 57% | 1013.6 hPa | - | - | - | - |
| 1777171426 | 11.67° C | 56% | 1013.6 hPa | - | - | - | - |
* Rain since midnight (hover to see other rain measurements)
** Current wind speed in m/s (hover to see current wind gust speed)